sensor_id;sensor_type;location;lat;lon;timestamp;P1;durP1;ratioP1;P2;durP2;ratioP2
15067;SDS011;7633;60.024;18.770;2022-12-19T00:00:30;2.73;;;0.40;;
15067;SDS011;7633;60.024;18.770;2022-12-19T00:02:55;0.37;;;0.27;;
15067;SDS011;7633;60.024;18.770;2022-12-19T00:05:21;1.10;;;0.60;;
15067;SDS011;7633;60.024;18.770;2022-12-19T00:07:49;2.13;;;0.53;;
15067;SDS011;7633;60.024;18.770;2022-12-19T00:10:15;1.40;;;0.47;;
15067;SDS011;7633;60.024;18.770;2022-12-19T00:12:41;1.33;;;0.50;;
15067;SDS011;7633;60.024;18.770;2022-12-19T00:15:06;0.37;;;0.20;;
15067;SDS011;7633;60.024;18.770;2022-12-19T00:17:32;0.77;;;0.37;;
15067;SDS011;7633;60.024;18.770;2022-12-19T00:19:57;0.00;;;0.00;;
15067;SDS011;7633;60.024;18.770;2022-12-19T00:22:23;0.17;;;0.10;;
15067;SDS011;7633;60.024;18.770;2022-12-19T00:24:48;0.73;;;0.50;;
15067;SDS011;7633;60.024;18.770;2022-12-19T00:27:14;0.63;;;0.40;;
15067;SDS011;7633;60.024;18.770;2022-12-19T00:29:39;0.40;;;0.20;;
15067;SDS011;7633;60.024;18.770;2022-12-19T00:32:05;0.53;;;0.50;;
15067;SDS011;7633;60.024;18.770;2022-12-19T00:34:30;0.20;;;0.10;;
15067;SDS011;7633;60.024;18.770;2022-12-19T00:36:55;0.70;;;0.30;;
15067;SDS011;7633;60.024;18.770;2022-12-19T00:39:21;0.43;;;0.37;;
15067;SDS011;7633;60.024;18.770;2022-12-19T00:41:46;0.50;;;0.20;;
15067;SDS011;7633;60.024;18.770;2022-12-19T00:44:12;0.03;;;0.03;;
15067;SDS011;7633;60.024;18.770;2022-12-19T00:46:38;1.17;;;0.60;;
15067;SDS011;7633;60.024;18.770;2022-12-19T00:49:04;0.10;;;0.10;;
15067;SDS011;7633;60.024;18.770;2022-12-19T00:51:30;0.20;;;0.20;;
15067;SDS011;7633;60.024;18.770;2022-12-19T00:53:56;0.73;;;0.20;;
15067;SDS011;7633;60.024;18.770;2022-12-19T00:56:23;0.10;;;0.10;;
15067;SDS011;7633;60.024;18.770;2022-12-19T00:58:48;0.20;;;0.20;;
15067;SDS011;7633;60.024;18.770;2022-12-19T01:01:15;0.10;;;0.10;;
15067;SDS011;7633;60.024;18.770;2022-12-19T01:03:41;0.20;;;0.20;;
15067;SDS011;7633;60.024;18.770;2022-12-19T01:06:07;2.53;;;0.40;;
15067;SDS011;7633;60.024;18.770;2022-12-19T01:08:33;0.20;;;0.10;;
15067;SDS011;7633;60.024;18.770;2022-12-19T01:10:58;0.43;;;0.23;;
15067;SDS011;7633;60.024;18.770;2022-12-19T01:13:28;0.20;;;0.20;;
15067;SDS011;7633;60.024;18.770;2022-12-19T01:15:54;2.27;;;0.60;;
15067;SDS011;7633;60.024;18.770;2022-12-19T01:18:20;2.00;;;0.60;;
15067;SDS011;7633;60.024;18.770;2022-12-19T01:20:45;1.77;;;0.70;;
15067;SDS011;7633;60.024;18.770;2022-12-19T01:23:11;1.30;;;0.40;;
15067;SDS011;7633;60.024;18.770;2022-12-19T01:25:37;0.23;;;0.20;;
15067;SDS011;7633;60.024;18.770;2022-12-19T01:28:06;0.20;;;0.20;;
15067;SDS011;7633;60.024;18.770;2022-12-19T01:30:31;1.10;;;0.70;;
15067;SDS011;7633;60.024;18.770;2022-12-19T01:32:57;1.40;;;0.70;;
15067;SDS011;7633;60.024;18.770;2022-12-19T01:35:23;0.20;;;0.10;;
15067;SDS011;7633;60.024;18.770;2022-12-19T01:37:49;0.63;;;0.57;;
15067;SDS011;7633;60.024;18.770;2022-12-19T01:40:15;0.60;;;0.50;;
15067;SDS011;7633;60.024;18.770;2022-12-19T01:42:41;0.60;;;0.40;;
15067;SDS011;7633;60.024;18.770;2022-12-19T01:47:32;3.07;;;0.70;;
15067;SDS011;7633;60.024;18.770;2022-12-19T01:49:58;2.87;;;0.53;;
15067;SDS011;7633;60.024;18.770;2022-12-19T01:52:25;0.93;;;0.37;;
15067;SDS011;7633;60.024;18.770;2022-12-19T01:54:51;0.77;;;0.30;;
15067;SDS011;7633;60.024;18.770;2022-12-19T01:57:18;0.60;;;0.27;;
15067;SDS011;7633;60.024;18.770;2022-12-19T01:59:50;1.40;;;0.40;;
15067;SDS011;7633;60.024;18.770;2022-12-19T02:04:51;0.10;;;0.10;;
15067;SDS011;7633;60.024;18.770;2022-12-19T02:07:17;2.30;;;0.50;;
15067;SDS011;7633;60.024;18.770;2022-12-19T02:09:44;0.40;;;0.30;;
15067;SDS011;7633;60.024;18.770;2022-12-19T02:12:10;0.20;;;0.20;;
15067;SDS011;7633;60.024;18.770;2022-12-19T02:14:36;0.73;;;0.33;;
15067;SDS011;7633;60.024;18.770;2022-12-19T02:19:54;0.20;;;0.20;;
15067;SDS011;7633;60.024;18.770;2022-12-19T02:25:00;2.60;;;0.50;;
15067;SDS011;7633;60.024;18.770;2022-12-19T02:30:16;0.30;;;0.10;;
15067;SDS011;7633;60.024;18.770;2022-12-19T02:32:51;0.67;;;0.40;;
15067;SDS011;7633;60.024;18.770;2022-12-19T02:35:39;0.60;;;0.40;;
15067;SDS011;7633;60.024;18.770;2022-12-19T02:43:50;0.10;;;0.10;;
15067;SDS011;7633;60.024;18.770;2022-12-19T02:46:16;1.07;;;0.40;;
15067;SDS011;7633;60.024;18.770;2022-12-19T02:48:43;2.10;;;0.23;;
15067;SDS011;7633;60.024;18.770;2022-12-19T02:51:09;0.77;;;0.20;;
15067;SDS011;7633;60.024;18.770;2022-12-19T02:53:34;0.93;;;0.30;;
15067;SDS011;7633;60.024;18.770;2022-12-19T03:06:12;0.10;;;0.10;;
15067;SDS011;7633;60.024;18.770;2022-12-19T03:08:50;2.20;;;0.47;;
15067;SDS011;7633;60.024;18.770;2022-12-19T03:11:18;0.10;;;0.10;;
15067;SDS011;7633;60.024;18.770;2022-12-19T03:13:52;1.90;;;0.30;;
15067;SDS011;7633;60.024;18.770;2022-12-19T03:16:19;1.80;;;0.53;;
15067;SDS011;7633;60.024;18.770;2022-12-19T03:18:45;3.13;;;0.70;;
15067;SDS011;7633;60.024;18.770;2022-12-19T03:21:16;1.37;;;0.80;;
15067;SDS011;7633;60.024;18.770;2022-12-19T03:23:42;0.97;;;0.53;;
15067;SDS011;7633;60.024;18.770;2022-12-19T03:26:13;1.50;;;0.83;;
15067;SDS011;7633;60.024;18.770;2022-12-19T03:28:45;1.17;;;0.53;;
15067;SDS011;7633;60.024;18.770;2022-12-19T03:31:12;1.13;;;0.30;;
15067;SDS011;7633;60.024;18.770;2022-12-19T03:33:39;3.30;;;0.53;;
15067;SDS011;7633;60.024;18.770;2022-12-19T03:36:06;1.47;;;0.47;;
15067;SDS011;7633;60.024;18.770;2022-12-19T03:38:34;2.07;;;0.80;;
15067;SDS011;7633;60.024;18.770;2022-12-19T03:41:03;0.50;;;0.30;;
15067;SDS011;7633;60.024;18.770;2022-12-19T03:43:35;0.30;;;0.30;;
15067;SDS011;7633;60.024;18.770;2022-12-19T03:46:05;1.10;;;0.17;;
15067;SDS011;7633;60.024;18.770;2022-12-19T03:48:47;3.03;;;0.40;;
15067;SDS011;7633;60.024;18.770;2022-12-19T03:51:22;0.00;;;0.00;;
15067;SDS011;7633;60.024;18.770;2022-12-19T03:54:00;0.20;;;0.20;;
15067;SDS011;7633;60.024;18.770;2022-12-19T03:58:52;0.30;;;0.10;;
15067;SDS011;7633;60.024;18.770;2022-12-19T04:01:19;0.10;;;0.10;;
15067;SDS011;7633;60.024;18.770;2022-12-19T04:03:45;0.57;;;0.20;;
15067;SDS011;7633;60.024;18.770;2022-12-19T04:06:11;1.40;;;0.60;;
15067;SDS011;7633;60.024;18.770;2022-12-19T04:08:37;0.37;;;0.10;;
15067;SDS011;7633;60.024;18.770;2022-12-19T04:11:07;1.40;;;0.23;;
15067;SDS011;7633;60.024;18.770;2022-12-19T04:13:34;1.27;;;0.50;;
15067;SDS011;7633;60.024;18.770;2022-12-19T04:16:07;0.10;;;0.10;;
15067;SDS011;7633;60.024;18.770;2022-12-19T04:18:35;8.43;;;0.83;;
15067;SDS011;7633;60.024;18.770;2022-12-19T04:21:04;0.87;;;0.50;;
15067;SDS011;7633;60.024;18.770;2022-12-19T04:23:32;3.97;;;0.60;;
15067;SDS011;7633;60.024;18.770;2022-12-19T04:26:02;0.63;;;0.40;;
15067;SDS011;7633;60.024;18.770;2022-12-19T04:30:56;1.17;;;0.60;;
15067;SDS011;7633;60.024;18.770;2022-12-19T04:33:22;0.40;;;0.30;;
15067;SDS011;7633;60.024;18.770;2022-12-19T04:35:47;1.00;;;0.30;;
15067;SDS011;7633;60.024;18.770;2022-12-19T04:38:13;1.23;;;0.60;;
15067;SDS011;7633;60.024;18.770;2022-12-19T04:40:38;1.00;;;0.50;;
15067;SDS011;7633;60.024;18.770;2022-12-19T04:43:04;1.27;;;0.77;;
15067;SDS011;7633;60.024;18.770;2022-12-19T04:45:31;0.67;;;0.60;;
15067;SDS011;7633;60.024;18.770;2022-12-19T04:47:57;0.70;;;0.40;;
15067;SDS011;7633;60.024;18.770;2022-12-19T04:50:22;1.23;;;0.23;;
15067;SDS011;7633;60.024;18.770;2022-12-19T04:52:47;0.30;;;0.30;;
15067;SDS011;7633;60.024;18.770;2022-12-19T04:55:13;3.20;;;0.57;;
15067;SDS011;7633;60.024;18.770;2022-12-19T04:57:40;0.33;;;0.33;;
15067;SDS011;7633;60.024;18.770;2022-12-19T05:00:05;1.80;;;0.70;;
15067;SDS011;7633;60.024;18.770;2022-12-19T05:02:33;2.20;;;0.53;;
15067;SDS011;7633;60.024;18.770;2022-12-19T05:04:59;1.37;;;0.60;;
15067;SDS011;7633;60.024;18.770;2022-12-19T05:07:24;1.37;;;1.03;;
15067;SDS011;7633;60.024;18.770;2022-12-19T05:09:50;1.13;;;0.47;;
15067;SDS011;7633;60.024;18.770;2022-12-19T05:12:15;2.13;;;0.60;;
15067;SDS011;7633;60.024;18.770;2022-12-19T05:14:40;0.67;;;0.30;;
15067;SDS011;7633;60.024;18.770;2022-12-19T05:17:06;3.90;;;0.70;;
15067;SDS011;7633;60.024;18.770;2022-12-19T05:19:31;0.13;;;0.13;;
15067;SDS011;7633;60.024;18.770;2022-12-19T05:21:57;0.00;;;0.00;;
15067;SDS011;7633;60.024;18.770;2022-12-19T05:24:22;0.87;;;0.43;;
15067;SDS011;7633;60.024;18.770;2022-12-19T05:26:48;1.90;;;0.23;;
15067;SDS011;7633;60.024;18.770;2022-12-19T05:29:13;0.40;;;0.40;;
15067;SDS011;7633;60.024;18.770;2022-12-19T05:31:39;0.37;;;0.20;;
15067;SDS011;7633;60.024;18.770;2022-12-19T05:34:05;0.87;;;0.40;;
15067;SDS011;7633;60.024;18.770;2022-12-19T05:36:30;0.43;;;0.30;;
15067;SDS011;7633;60.024;18.770;2022-12-19T05:38:56;0.60;;;0.50;;
15067;SDS011;7633;60.024;18.770;2022-12-19T05:41:21;0.30;;;0.30;;
15067;SDS011;7633;60.024;18.770;2022-12-19T05:43:53;0.50;;;0.50;;
15067;SDS011;7633;60.024;18.770;2022-12-19T05:46:19;1.10;;;0.27;;
15067;SDS011;7633;60.024;18.770;2022-12-19T05:48:45;1.20;;;0.60;;
15067;SDS011;7633;60.024;18.770;2022-12-19T05:51:14;1.47;;;0.70;;
15067;SDS011;7633;60.024;18.770;2022-12-19T05:53:45;0.83;;;0.60;;
15067;SDS011;7633;60.024;18.770;2022-12-19T05:56:15;3.90;;;0.80;;
15067;SDS011;7633;60.024;18.770;2022-12-19T05:58:41;1.43;;;0.80;;
15067;SDS011;7633;60.024;18.770;2022-12-19T06:01:14;1.90;;;0.60;;
15067;SDS011;7633;60.024;18.770;2022-12-19T06:03:40;1.90;;;0.77;;
15067;SDS011;7633;60.024;18.770;2022-12-19T06:06:07;2.77;;;0.80;;
15067;SDS011;7633;60.024;18.770;2022-12-19T06:08:33;2.57;;;0.67;;
15067;SDS011;7633;60.024;18.770;2022-12-19T06:10:59;0.93;;;0.60;;
15067;SDS011;7633;60.024;18.770;2022-12-19T06:13:24;0.53;;;0.40;;
15067;SDS011;7633;60.024;18.770;2022-12-19T06:15:55;2.30;;;0.70;;
15067;SDS011;7633;60.024;18.770;2022-12-19T06:18:20;1.10;;;0.60;;
15067;SDS011;7633;60.024;18.770;2022-12-19T06:20:54;1.53;;;0.73;;
15067;SDS011;7633;60.024;18.770;2022-12-19T06:23:19;1.23;;;0.57;;
15067;SDS011;7633;60.024;18.770;2022-12-19T06:25:44;3.20;;;0.80;;
15067;SDS011;7633;60.024;18.770;2022-12-19T06:28:10;1.77;;;0.80;;
15067;SDS011;7633;60.024;18.770;2022-12-19T06:30:35;0.70;;;0.70;;
15067;SDS011;7633;60.024;18.770;2022-12-19T06:33:01;1.27;;;0.60;;
15067;SDS011;7633;60.024;18.770;2022-12-19T06:35:26;4.63;;;0.50;;
15067;SDS011;7633;60.024;18.770;2022-12-19T06:37:51;2.93;;;0.60;;
15067;SDS011;7633;60.024;18.770;2022-12-19T06:40:17;2.53;;;0.50;;
15067;SDS011;7633;60.024;18.770;2022-12-19T06:43:02;0.83;;;0.57;;
15067;SDS011;7633;60.024;18.770;2022-12-19T06:45:28;2.70;;;0.73;;
15067;SDS011;7633;60.024;18.770;2022-12-19T06:47:54;5.97;;;0.90;;
15067;SDS011;7633;60.024;18.770;2022-12-19T06:50:19;3.17;;;0.90;;
15067;SDS011;7633;60.024;18.770;2022-12-19T06:52:45;2.37;;;0.70;;
15067;SDS011;7633;60.024;18.770;2022-12-19T06:55:10;2.67;;;0.70;;
15067;SDS011;7633;60.024;18.770;2022-12-19T06:57:36;2.10;;;0.70;;
15067;SDS011;7633;60.024;18.770;2022-12-19T07:00:02;1.27;;;0.40;;
15067;SDS011;7633;60.024;18.770;2022-12-19T07:02:28;2.93;;;0.70;;
15067;SDS011;7633;60.024;18.770;2022-12-19T07:04:56;2.23;;;0.90;;
15067;SDS011;7633;60.024;18.770;2022-12-19T07:07:23;1.60;;;0.90;;
15067;SDS011;7633;60.024;18.770;2022-12-19T07:09:49;2.57;;;0.90;;
15067;SDS011;7633;60.024;18.770;2022-12-19T07:12:14;3.33;;;0.70;;
15067;SDS011;7633;60.024;18.770;2022-12-19T07:14:39;1.50;;;0.77;;
15067;SDS011;7633;60.024;18.770;2022-12-19T07:17:05;2.77;;;1.10;;
15067;SDS011;7633;60.024;18.770;2022-12-19T07:19:30;3.23;;;0.73;;
15067;SDS011;7633;60.024;18.770;2022-12-19T07:21:57;1.57;;;0.67;;
15067;SDS011;7633;60.024;18.770;2022-12-19T07:24:23;2.87;;;0.70;;
15067;SDS011;7633;60.024;18.770;2022-12-19T07:26:49;4.20;;;0.93;;
15067;SDS011;7633;60.024;18.770;2022-12-19T07:29:14;2.13;;;0.83;;
15067;SDS011;7633;60.024;18.770;2022-12-19T07:31:40;4.63;;;1.00;;
15067;SDS011;7633;60.024;18.770;2022-12-19T07:34:05;5.57;;;1.53;;
15067;SDS011;7633;60.024;18.770;2022-12-19T07:36:30;3.83;;;1.00;;
15067;SDS011;7633;60.024;18.770;2022-12-19T07:38:56;3.97;;;1.47;;
15067;SDS011;7633;60.024;18.770;2022-12-19T07:41:21;7.37;;;1.60;;
15067;SDS011;7633;60.024;18.770;2022-12-19T07:43:46;9.83;;;2.00;;
15067;SDS011;7633;60.024;18.770;2022-12-19T07:46:12;7.00;;;1.80;;
15067;SDS011;7633;60.024;18.770;2022-12-19T07:48:37;6.90;;;1.83;;
15067;SDS011;7633;60.024;18.770;2022-12-19T07:51:03;4.47;;;1.70;;
15067;SDS011;7633;60.024;18.770;2022-12-19T07:53:29;6.93;;;2.30;;
15067;SDS011;7633;60.024;18.770;2022-12-19T07:55:55;4.70;;;1.70;;
15067;SDS011;7633;60.024;18.770;2022-12-19T07:58:20;3.47;;;1.53;;
15067;SDS011;7633;60.024;18.770;2022-12-19T08:00:52;4.97;;;2.67;;
15067;SDS011;7633;60.024;18.770;2022-12-19T08:03:18;4.83;;;1.77;;
15067;SDS011;7633;60.024;18.770;2022-12-19T08:05:43;4.37;;;1.37;;
15067;SDS011;7633;60.024;18.770;2022-12-19T08:08:08;3.70;;;1.50;;
15067;SDS011;7633;60.024;18.770;2022-12-19T08:10:34;5.80;;;1.83;;
15067;SDS011;7633;60.024;18.770;2022-12-19T08:12:59;9.03;;;1.23;;
15067;SDS011;7633;60.024;18.770;2022-12-19T08:15:24;4.20;;;1.50;;
15067;SDS011;7633;60.024;18.770;2022-12-19T08:17:50;3.03;;;1.07;;
15067;SDS011;7633;60.024;18.770;2022-12-19T08:20:15;3.50;;;1.40;;
15067;SDS011;7633;60.024;18.770;2022-12-19T08:22:41;5.07;;;2.23;;
15067;SDS011;7633;60.024;18.770;2022-12-19T08:25:06;1.87;;;0.60;;
15067;SDS011;7633;60.024;18.770;2022-12-19T08:27:32;2.83;;;0.43;;
15067;SDS011;7633;60.024;18.770;2022-12-19T08:29:58;3.80;;;2.33;;
15067;SDS011;7633;60.024;18.770;2022-12-19T08:32:24;3.73;;;2.13;;
15067;SDS011;7633;60.024;18.770;2022-12-19T08:34:49;5.97;;;3.40;;
15067;SDS011;7633;60.024;18.770;2022-12-19T08:37:15;4.40;;;2.60;;
15067;SDS011;7633;60.024;18.770;2022-12-19T08:39:40;7.63;;;3.17;;
15067;SDS011;7633;60.024;18.770;2022-12-19T08:42:05;7.50;;;3.30;;
15067;SDS011;7633;60.024;18.770;2022-12-19T08:44:31;16.13;;;3.23;;
15067;SDS011;7633;60.024;18.770;2022-12-19T08:46:56;7.50;;;3.27;;
15067;SDS011;7633;60.024;18.770;2022-12-19T08:49:21;9.53;;;4.30;;
15067;SDS011;7633;60.024;18.770;2022-12-19T08:51:47;11.37;;;4.73;;
15067;SDS011;7633;60.024;18.770;2022-12-19T08:54:12;14.77;;;5.73;;
15067;SDS011;7633;60.024;18.770;2022-12-19T08:56:38;12.30;;;4.77;;
15067;SDS011;7633;60.024;18.770;2022-12-19T08:59:03;11.23;;;4.27;;
15067;SDS011;7633;60.024;18.770;2022-12-19T09:01:29;14.33;;;5.20;;
15067;SDS011;7633;60.024;18.770;2022-12-19T09:03:56;11.20;;;5.20;;
15067;SDS011;7633;60.024;18.770;2022-12-19T09:06:22;15.70;;;5.60;;
15067;SDS011;7633;60.024;18.770;2022-12-19T09:08:47;9.80;;;4.80;;
15067;SDS011;7633;60.024;18.770;2022-12-19T09:11:17;13.63;;;5.60;;
15067;SDS011;7633;60.024;18.770;2022-12-19T09:13:44;16.10;;;5.77;;
15067;SDS011;7633;60.024;18.770;2022-12-19T09:16:17;10.40;;;5.50;;
15067;SDS011;7633;60.024;18.770;2022-12-19T09:18:43;14.77;;;6.47;;
15067;SDS011;7633;60.024;18.770;2022-12-19T09:21:09;16.73;;;7.60;;
15067;SDS011;7633;60.024;18.770;2022-12-19T09:23:34;14.13;;;6.53;;
15067;SDS011;7633;60.024;18.770;2022-12-19T09:26:07;13.90;;;5.67;;
15067;SDS011;7633;60.024;18.770;2022-12-19T09:28:33;11.67;;;5.40;;
15067;SDS011;7633;60.024;18.770;2022-12-19T09:30:59;11.13;;;6.13;;
15067;SDS011;7633;60.024;18.770;2022-12-19T09:33:25;15.37;;;6.33;;
15067;SDS011;7633;60.024;18.770;2022-12-19T09:35:51;12.27;;;5.40;;
15067;SDS011;7633;60.024;18.770;2022-12-19T09:38:17;15.07;;;6.23;;
15067;SDS011;7633;60.024;18.770;2022-12-19T09:40:49;11.80;;;5.27;;
15067;SDS011;7633;60.024;18.770;2022-12-19T09:46:14;16.43;;;5.97;;
15067;SDS011;7633;60.024;18.770;2022-12-19T09:48:40;11.93;;;6.07;;
15067;SDS011;7633;60.024;18.770;2022-12-19T09:51:09;15.63;;;6.53;;
15067;SDS011;7633;60.024;18.770;2022-12-19T09:53:38;11.23;;;5.90;;
15067;SDS011;7633;60.024;18.770;2022-12-19T09:56:09;12.63;;;5.73;;
15067;SDS011;7633;60.024;18.770;2022-12-19T09:58:36;17.87;;;7.63;;
15067;SDS011;7633;60.024;18.770;2022-12-19T10:01:04;12.93;;;6.37;;
15067;SDS011;7633;60.024;18.770;2022-12-19T10:03:34;9.07;;;4.70;;
15067;SDS011;7633;60.024;18.770;2022-12-19T10:06:12;13.80;;;6.70;;
15067;SDS011;7633;60.024;18.770;2022-12-19T10:08:39;15.10;;;7.17;;
15067;SDS011;7633;60.024;18.770;2022-12-19T10:11:09;11.40;;;5.80;;
15067;SDS011;7633;60.024;18.770;2022-12-19T10:16:11;10.70;;;4.87;;
15067;SDS011;7633;60.024;18.770;2022-12-19T10:18:54;12.47;;;7.17;;
15067;SDS011;7633;60.024;18.770;2022-12-19T10:24:11;9.20;;;4.67;;
15067;SDS011;7633;60.024;18.770;2022-12-19T10:29:25;5.63;;;3.03;;
15067;SDS011;7633;60.024;18.770;2022-12-19T10:31:58;7.63;;;5.40;;
15067;SDS011;7633;60.024;18.770;2022-12-19T10:35:04;9.07;;;5.20;;
15067;SDS011;7633;60.024;18.770;2022-12-19T10:39:52;10.97;;;4.80;;
15067;SDS011;7633;60.024;18.770;2022-12-19T10:42:30;9.60;;;5.10;;
15067;SDS011;7633;60.024;18.770;2022-12-19T10:44:57;6.07;;;3.93;;
15067;SDS011;7633;60.024;18.770;2022-12-19T10:47:23;10.97;;;4.20;;
15067;SDS011;7633;60.024;18.770;2022-12-19T10:49:49;9.47;;;5.20;;
15067;SDS011;7633;60.024;18.770;2022-12-19T10:52:14;6.20;;;4.20;;
15067;SDS011;7633;60.024;18.770;2022-12-19T10:54:41;9.33;;;5.60;;
15067;SDS011;7633;60.024;18.770;2022-12-19T10:57:24;7.43;;;4.70;;
15067;SDS011;7633;60.024;18.770;2022-12-19T10:59:56;8.23;;;5.20;;
15067;SDS011;7633;60.024;18.770;2022-12-19T11:04:57;8.87;;;5.10;;
15067;SDS011;7633;60.024;18.770;2022-12-19T11:07:23;8.00;;;4.50;;
15067;SDS011;7633;60.024;18.770;2022-12-19T11:09:48;9.03;;;5.07;;
15067;SDS011;7633;60.024;18.770;2022-12-19T11:12:15;6.77;;;3.87;;
15067;SDS011;7633;60.024;18.770;2022-12-19T11:14:49;4.77;;;2.93;;
15067;SDS011;7633;60.024;18.770;2022-12-19T11:19:58;4.53;;;2.50;;
15067;SDS011;7633;60.024;18.770;2022-12-19T11:22:33;2.33;;;1.63;;
15067;SDS011;7633;60.024;18.770;2022-12-19T11:25:00;6.30;;;3.17;;
15067;SDS011;7633;60.024;18.770;2022-12-19T11:30:01;2.80;;;2.33;;
15067;SDS011;7633;60.024;18.770;2022-12-19T11:32:31;4.03;;;3.63;;
15067;SDS011;7633;60.024;18.770;2022-12-19T11:35:01;6.00;;;3.40;;
15067;SDS011;7633;60.024;18.770;2022-12-19T11:40:14;5.23;;;3.10;;
15067;SDS011;7633;60.024;18.770;2022-12-19T11:42:57;5.03;;;3.23;;
15067;SDS011;7633;60.024;18.770;2022-12-19T11:50:27;1.40;;;1.13;;
15067;SDS011;7633;60.024;18.770;2022-12-19T11:53:13;5.37;;;3.30;;
15067;SDS011;7633;60.024;18.770;2022-12-19T11:56:00;7.33;;;3.57;;
15067;SDS011;7633;60.024;18.770;2022-12-19T11:58:28;7.60;;;3.20;;
15067;SDS011;7633;60.024;18.770;2022-12-19T12:05:48;5.20;;;3.00;;
15067;SDS011;7633;60.024;18.770;2022-12-19T12:10:58;8.37;;;2.13;;
15067;SDS011;7633;60.024;18.770;2022-12-19T12:16:10;4.23;;;3.10;;
15067;SDS011;7633;60.024;18.770;2022-12-19T12:26:13;6.13;;;3.10;;
15067;SDS011;7633;60.024;18.770;2022-12-19T12:34:15;7.80;;;3.93;;
15067;SDS011;7633;60.024;18.770;2022-12-19T12:42:28;7.53;;;3.77;;
15067;SDS011;7633;60.024;18.770;2022-12-19T12:44:47;5.97;;;2.27;;
15067;SDS011;7633;60.024;18.770;2022-12-19T12:47:19;9.17;;;3.57;;
15067;SDS011;7633;60.024;18.770;2022-12-19T12:49:47;7.30;;;3.37;;
15067;SDS011;7633;60.024;18.770;2022-12-19T12:52:19;8.07;;;4.10;;
15067;SDS011;7633;60.024;18.770;2022-12-19T12:54:46;8.03;;;4.23;;
15067;SDS011;7633;60.024;18.770;2022-12-19T12:57:16;8.53;;;4.13;;
15067;SDS011;7633;60.024;18.770;2022-12-19T12:59:43;7.37;;;4.37;;
15067;SDS011;7633;60.024;18.770;2022-12-19T13:02:14;11.07;;;5.43;;
15067;SDS011;7633;60.024;18.770;2022-12-19T13:04:42;10.07;;;5.30;;
15067;SDS011;7633;60.024;18.770;2022-12-19T13:07:18;8.57;;;4.27;;
15067;SDS011;7633;60.024;18.770;2022-12-19T13:09:44;9.10;;;4.47;;
15067;SDS011;7633;60.024;18.770;2022-12-19T13:12:18;10.13;;;4.77;;
15067;SDS011;7633;60.024;18.770;2022-12-19T13:22:42;11.77;;;4.90;;
15067;SDS011;7633;60.024;18.770;2022-12-19T13:27:56;9.07;;;4.50;;
15067;SDS011;7633;60.024;18.770;2022-12-19T13:30:22;9.87;;;4.63;;
15067;SDS011;7633;60.024;18.770;2022-12-19T13:37:40;8.37;;;4.90;;
15067;SDS011;7633;60.024;18.770;2022-12-19T13:42:38;12.33;;;5.07;;
15067;SDS011;7633;60.024;18.770;2022-12-19T13:45:28;7.90;;;4.83;;
15067;SDS011;7633;60.024;18.770;2022-12-19T13:47:55;9.43;;;4.40;;
15067;SDS011;7633;60.024;18.770;2022-12-19T13:50:25;8.33;;;5.00;;
15067;SDS011;7633;60.024;18.770;2022-12-19T13:52:51;10.27;;;5.73;;
15067;SDS011;7633;60.024;18.770;2022-12-19T13:55:17;9.87;;;5.10;;
15067;SDS011;7633;60.024;18.770;2022-12-19T13:57:45;8.50;;;4.63;;
15067;SDS011;7633;60.024;18.770;2022-12-19T14:00:21;9.43;;;4.97;;
15067;SDS011;7633;60.024;18.770;2022-12-19T14:02:48;11.83;;;5.50;;
15067;SDS011;7633;60.024;18.770;2022-12-19T14:05:31;8.53;;;4.97;;
15067;SDS011;7633;60.024;18.770;2022-12-19T14:07:57;10.57;;;5.47;;
15067;SDS011;7633;60.024;18.770;2022-12-19T14:10:26;9.10;;;5.40;;
15067;SDS011;7633;60.024;18.770;2022-12-19T14:12:52;11.50;;;5.83;;
15067;SDS011;7633;60.024;18.770;2022-12-19T14:15:38;9.17;;;5.57;;
15067;SDS011;7633;60.024;18.770;2022-12-19T14:18:18;10.90;;;5.57;;
15067;SDS011;7633;60.024;18.770;2022-12-19T14:20:45;10.97;;;5.33;;
15067;SDS011;7633;60.024;18.770;2022-12-19T14:23:11;8.43;;;5.17;;
15067;SDS011;7633;60.024;18.770;2022-12-19T14:28:03;12.83;;;5.70;;
15067;SDS011;7633;60.024;18.770;2022-12-19T14:30:34;9.70;;;4.60;;
15067;SDS011;7633;60.024;18.770;2022-12-19T14:33:05;11.03;;;5.57;;
15067;SDS011;7633;60.024;18.770;2022-12-19T14:35:37;9.53;;;5.63;;
15067;SDS011;7633;60.024;18.770;2022-12-19T14:38:11;7.70;;;4.73;;
15067;SDS011;7633;60.024;18.770;2022-12-19T14:40:44;10.63;;;5.43;;
15067;SDS011;7633;60.024;18.770;2022-12-19T14:43:13;10.10;;;5.00;;
15067;SDS011;7633;60.024;18.770;2022-12-19T14:56:55;11.60;;;6.10;;
15067;SDS011;7633;60.024;18.770;2022-12-19T15:01:51;9.27;;;5.57;;
15067;SDS011;7633;60.024;18.770;2022-12-19T15:04:20;10.77;;;6.10;;
15067;SDS011;7633;60.024;18.770;2022-12-19T15:06:46;11.23;;;6.17;;
15067;SDS011;7633;60.024;18.770;2022-12-19T15:09:14;13.73;;;6.37;;
15067;SDS011;7633;60.024;18.770;2022-12-19T15:11:45;10.83;;;6.03;;
15067;SDS011;7633;60.024;18.770;2022-12-19T15:14:41;12.27;;;6.13;;
15067;SDS011;7633;60.024;18.770;2022-12-19T15:17:25;11.97;;;6.80;;
15067;SDS011;7633;60.024;18.770;2022-12-19T15:19:51;11.30;;;5.80;;
15067;SDS011;7633;60.024;18.770;2022-12-19T15:22:18;10.57;;;5.47;;
15067;SDS011;7633;60.024;18.770;2022-12-19T15:24:49;10.73;;;5.80;;
15067;SDS011;7633;60.024;18.770;2022-12-19T15:27:20;11.27;;;4.90;;
15067;SDS011;7633;60.024;18.770;2022-12-19T15:29:46;14.47;;;7.20;;
15067;SDS011;7633;60.024;18.770;2022-12-19T15:32:15;12.20;;;6.77;;
15067;SDS011;7633;60.024;18.770;2022-12-19T15:34:42;10.50;;;6.57;;
15067;SDS011;7633;60.024;18.770;2022-12-19T15:37:09;10.90;;;6.90;;
15067;SDS011;7633;60.024;18.770;2022-12-19T15:39:35;9.60;;;6.37;;
15067;SDS011;7633;60.024;18.770;2022-12-19T15:42:00;11.47;;;6.50;;
15067;SDS011;7633;60.024;18.770;2022-12-19T15:44:33;10.07;;;6.00;;
15067;SDS011;7633;60.024;18.770;2022-12-19T15:47:01;13.87;;;6.57;;
15067;SDS011;7633;60.024;18.770;2022-12-19T15:49:27;13.13;;;6.80;;
15067;SDS011;7633;60.024;18.770;2022-12-19T15:51:53;15.63;;;6.77;;
15067;SDS011;7633;60.024;18.770;2022-12-19T15:54:18;14.67;;;6.70;;
15067;SDS011;7633;60.024;18.770;2022-12-19T15:56:46;13.87;;;6.43;;
15067;SDS011;7633;60.024;18.770;2022-12-19T16:01:50;10.27;;;6.80;;
15067;SDS011;7633;60.024;18.770;2022-12-19T16:04:15;12.83;;;7.23;;
15067;SDS011;7633;60.024;18.770;2022-12-19T16:06:41;15.60;;;7.57;;
15067;SDS011;7633;60.024;18.770;2022-12-19T16:09:23;14.27;;;6.73;;
15067;SDS011;7633;60.024;18.770;2022-12-19T16:11:49;14.73;;;7.40;;
15067;SDS011;7633;60.024;18.770;2022-12-19T16:14:15;9.40;;;6.33;;
15067;SDS011;7633;60.024;18.770;2022-12-19T16:16:41;13.93;;;6.90;;
15067;SDS011;7633;60.024;18.770;2022-12-19T16:19:27;14.30;;;6.43;;
15067;SDS011;7633;60.024;18.770;2022-12-19T16:21:53;13.37;;;7.00;;
15067;SDS011;7633;60.024;18.770;2022-12-19T16:24:19;13.60;;;7.23;;
15067;SDS011;7633;60.024;18.770;2022-12-19T16:26:47;15.63;;;8.47;;
15067;SDS011;7633;60.024;18.770;2022-12-19T16:29:21;13.93;;;7.57;;
15067;SDS011;7633;60.024;18.770;2022-12-19T16:31:47;16.70;;;8.43;;
15067;SDS011;7633;60.024;18.770;2022-12-19T16:34:14;11.50;;;6.13;;
15067;SDS011;7633;60.024;18.770;2022-12-19T16:36:40;13.13;;;7.33;;
15067;SDS011;7633;60.024;18.770;2022-12-19T16:39:06;14.07;;;7.40;;
15067;SDS011;7633;60.024;18.770;2022-12-19T16:41:32;15.90;;;7.30;;
15067;SDS011;7633;60.024;18.770;2022-12-19T16:43:57;14.03;;;8.00;;
15067;SDS011;7633;60.024;18.770;2022-12-19T16:46:23;16.13;;;7.70;;
15067;SDS011;7633;60.024;18.770;2022-12-19T16:48:54;16.73;;;8.00;;
15067;SDS011;7633;60.024;18.770;2022-12-19T16:51:23;14.00;;;8.43;;
15067;SDS011;7633;60.024;18.770;2022-12-19T16:53:50;14.57;;;7.80;;
15067;SDS011;7633;60.024;18.770;2022-12-19T16:58:47;18.07;;;9.03;;